Malibu — ZCGB — position and weather

sailwx.info

Track history (hours):
 
Tides and Currents Weather Stations Pressure Air Temp Water Temp Dewpoint Dewpoint Depression Visibility Wind Speed Wind Dir Waves Ship Positions

Malibu

Last reported at 2017-Aug-03 07:02 UTC. Time now 2017-Oct-18 04:01 UTC.
Position N 38°58' E 014°55'.
Warning: this ship's position is months out of date.

Length 50 m; draft 3.4 m.

Type: Pleasure craft. MMSI: 319663000.

Date/timePositionNaut miles runAvg speedWind from/ knotsBaromVisibWave heightAir tempDewpointWater temp
2017-Aug-03 07:02N 38°58' E 014°55'9211.4
2017-Aug-02 22:58N 40°26' E 014°17'510.5
2017-Aug-02 22:29N 40°31' E 014°15'2 2.4
2017-Aug-02 21:48N 40°32' E 014°15'0 0.0
2017-Aug-02 19:24N 40°32' E 014°15'0 0.1
2017-Aug-02 18:57N 40°32' E 014°15'0 0.0
2017-Aug-02 18:27N 40°32' E 014°15'0 0.1
2017-Aug-02 17:57N 40°32' E 014°15'0 0.1
2017-Aug-02 17:30N 40°32' E 014°15'0 0.1
2017-Aug-02 16:54N 40°32' E 014°15'0 0.1
2017-Aug-02 16:24N 40°32' E 014°15'0 0.0
2017-Aug-02 15:54N 40°32' E 014°15'0 0.0
2017-Aug-02 15:27N 40°32' E 014°15'0 0.0
2017-Aug-02 14:57N 40°32' E 014°15'0 0.0
2017-Aug-02 13:27N 40°32' E 014°15'0 0.0
2017-Aug-02 12:57N 40°32' E 014°15'0 0.0
2017-Aug-02 12:27N 40°32' E 014°15'0 0.0
2017-Aug-02 11:45N 40°32' E 014°15'0 0.0
2017-Aug-02 11:27N 40°32' E 014°15'0 0.0
2017-Aug-02 10:57N 40°32' E 014°15'0 0.0
2017-Aug-02 10:27N 40°32' E 014°15'0 0.0
2017-Aug-02 09:46N 40°32' E 014°15'0 1.3
2017-Aug-02 09:30N 40°32' E 014°15'5 8.0
2017-Aug-02 08:53N 40°37' E 014°16'410.8
2017-Aug-02 08:30N 40°41' E 014°15'811.3
2017-Aug-02 07:50N 40°49' E 014°14'1 1.6
2017-Aug-02 07:30N 40°49' E 014°14'0 0.0
2017-Aug-02 06:59N 40°49' E 014°14'0 0.0
2017-Aug-02 06:30N 40°49' E 014°14'0 0.0
2017-Aug-02 06:00N 40°49' E 014°14'0 0.0
2017-Aug-02 05:29N 40°49' E 014°14'0 0.1
2017-Aug-02 05:00N 40°49' E 014°14'  
Track history (hours):
 
Tides and Currents Weather Stations Pressure Air Temp Water Temp Dewpoint Dewpoint Depression Visibility Wind Speed Wind Dir Waves Ship Positions

Malibu

Last reported at 2017-Aug-03 07:02 UTC. Time now 2017-Oct-18 04:01 UTC.
Position N 38°58' E 014°55'.
Warning: this ship's position is months out of date.

Length 50 m; draft 3.4 m.

Type: Pleasure craft. MMSI: 319663000.

Date/timePositionNaut miles runAvg speedWind from/ knotsBaromVisibWave heightAir tempDewpointWater temp
2017-Aug-03 07:02N 38°58' E 014°55'9211.4
2017-Aug-02 22:58N 40°26' E 014°17'510.5
2017-Aug-02 22:29N 40°31' E 014°15'2 2.4
2017-Aug-02 21:48N 40°32' E 014°15'0 0.0
2017-Aug-02 19:24N 40°32' E 014°15'0 0.1
2017-Aug-02 18:57N 40°32' E 014°15'0 0.0
2017-Aug-02 18:27N 40°32' E 014°15'0 0.1
2017-Aug-02 17:57N 40°32' E 014°15'0 0.1
2017-Aug-02 17:30N 40°32' E 014°15'0 0.1
2017-Aug-02 16:54N 40°32' E 014°15'0 0.1
2017-Aug-02 16:24N 40°32' E 014°15'0 0.0
2017-Aug-02 15:54N 40°32' E 014°15'0 0.0
2017-Aug-02 15:27N 40°32' E 014°15'0 0.0
2017-Aug-02 14:57N 40°32' E 014°15'0 0.0
2017-Aug-02 13:27N 40°32' E 014°15'0 0.0
2017-Aug-02 12:57N 40°32' E 014°15'0 0.0
2017-Aug-02 12:27N 40°32' E 014°15'0 0.0
2017-Aug-02 11:45N 40°32' E 014°15'0 0.0
2017-Aug-02 11:27N 40°32' E 014°15'0 0.0
2017-Aug-02 10:57N 40°32' E 014°15'0 0.0
2017-Aug-02 10:27N 40°32' E 014°15'0 0.0
2017-Aug-02 09:46N 40°32' E 014°15'0 1.3
2017-Aug-02 09:30N 40°32' E 014°15'5 8.0
2017-Aug-02 08:53N 40°37' E 014°16'410.8
2017-Aug-02 08:30N 40°41' E 014°15'811.3
2017-Aug-02 07:50N 40°49' E 014°14'1 1.6
2017-Aug-02 07:30N 40°49' E 014°14'0 0.0
2017-Aug-02 06:59N 40°49' E 014°14'0 0.0
2017-Aug-02 06:30N 40°49' E 014°14'0 0.0
2017-Aug-02 06:00N 40°49' E 014°14'0 0.0
2017-Aug-02 05:29N 40°49' E 014°14'0 0.1
2017-Aug-02 05:00N 40°49' E 014°14'  

Dump ship's entire track history